Time;durP1;ratioP1;P1;durP2;ratioP2;P2;SDS_P1;SDS_P2;PMS_P1;PMS_P2;Temp;Humidity;BMP_temperature;BMP_pressure;BME280_temperature;BME280_humidity;BME280_pressure;Samples;Min_cycle;Max_cycle;Signal;HPM_P1;HPM_P2
2024/03/27 00:01:10;;;;;;;14.23;2.33;;;;;;;;;;4988188;28;20034;-78
2024/03/27 00:03:38;;;;;;;13.50;2.53;;;;;;;;;;4976478;28;20050;-79
2024/03/27 00:06:06;;;;;;;10.93;2.13;;;;;;;;;;4987163;28;20030;-78
2024/03/27 00:08:35;;;;;;;8.43;2.10;;;;;;;;;;4980139;28;20036;-77
2024/03/27 00:11:02;;;;;;;10.75;3.35;;;;;;;;;;4984883;28;20030;-78
2024/03/27 00:13:28;;;;;;;11.32;3.78;;;;;;;;;;4986475;28;20018;-77
2024/03/27 00:15:56;;;;;;;14.00;4.57;;;;;;;;;;4986771;28;20130;-77
2024/03/27 00:18:22;;;;;;;12.07;4.30;;;;;;;;;;4987675;28;20057;-76
2024/03/27 00:20:50;;;;;;;10.07;2.67;;;;;;;;;;4982234;28;20071;-77
2024/03/27 00:23:18;;;;;;;10.63;2.10;;;;;;;;;;4986265;28;20084;-78
2024/03/27 00:25:46;;;;;;;10.98;1.90;;;;;;;;;;4984505;28;20034;-77
2024/03/27 00:28:14;;;;;;;8.93;2.38;;;;;;;;;;4987300;28;20029;-77
2024/03/27 00:30:43;;;;;;;9.23;2.28;;;;;;;;;;4982024;28;20052;-77
2024/03/27 00:33:14;;;;;;;10.32;2.00;;;;;;;;;;4984095;28;20026;-77
2024/03/27 00:35:43;;;;;;;10.13;2.00;;;;;;;;;;4984606;28;20029;-77
2024/03/27 00:38:10;;;;;;;11.18;1.80;;;;;;;;;;4986729;28;20572;-77
2024/03/27 00:40:38;;;;;;;7.88;1.45;;;;;;;;;;4981112;28;20549;-77
2024/03/27 00:43:08;;;;;;;10.13;2.70;;;;;;;;;;4981829;28;20029;-77
2024/03/27 00:45:35;;;;;;;17.25;10.27;;;;;;;;;;4984852;28;20066;-77
2024/03/27 00:48:01;;;;;;;20.85;13.05;;;;;;;;;;4983683;28;20030;-76
2024/03/27 00:50:28;;;;;;;16.23;8.30;;;;;;;;;;4986441;28;20116;-78
2024/03/27 00:52:55;;;;;;;13.93;5.60;;;;;;;;;;4983450;28;20033;-77
2024/03/27 00:55:24;;;;;;;11.10;2.85;;;;;;;;;;4988531;28;20136;-78
2024/03/27 00:57:50;;;;;;;8.82;2.00;;;;;;;;;;4982515;28;20510;-78
2024/03/27 01:00:18;;;;;;;9.68;2.08;;;;;;;;;;4985584;28;20037;-78
2024/03/27 01:02:47;;;;;;;11.70;2.35;;;;;;;;;;4986154;28;20060;-79
2024/03/27 01:05:15;;;;;;;8.48;1.80;;;;;;;;;;4983693;28;20149;-77
2024/03/27 01:07:45;;;;;;;8.18;2.03;;;;;;;;;;4980568;28;20145;-79
2024/03/27 01:10:17;;;;;;;9.98;2.10;;;;;;;;;;4981594;28;20033;-79
2024/03/27 01:12:45;;;;;;;7.20;1.60;;;;;;;;;;4985219;28;20038;-79
2024/03/27 01:15:13;;;;;;;8.75;1.80;;;;;;;;;;4983583;28;20041;-78
2024/03/27 01:17:40;;;;;;;9.60;1.58;;;;;;;;;;4985310;28;20045;-79
2024/03/27 01:20:09;;;;;;;8.48;1.83;;;;;;;;;;4990696;28;20058;-76
2024/03/27 01:22:35;;;;;;;10.73;2.25;;;;;;;;;;4987314;28;21009;-79
2024/03/27 01:25:05;;;;;;;13.02;1.98;;;;;;;;;;4992206;28;20034;-78
2024/03/27 01:27:33;;;;;;;11.82;1.98;;;;;;;;;;4984738;28;20337;-79
2024/03/27 01:30:00;;;;;;;9.68;1.83;;;;;;;;;;4989540;28;20052;-78
2024/03/27 01:32:27;;;;;;;10.85;1.95;;;;;;;;;;4988028;28;20500;-78
2024/03/27 01:34:54;;;;;;;11.43;2.00;;;;;;;;;;4986093;28;20049;-78
2024/03/27 01:37:23;;;;;;;9.20;1.90;;;;;;;;;;4990696;28;20053;-78
2024/03/27 01:39:52;;;;;;;10.90;2.00;;;;;;;;;;4985598;28;20030;-78
2024/03/27 01:42:19;;;;;;;7.75;1.60;;;;;;;;;;4988433;28;20661;-78
2024/03/27 01:44:45;;;;;;;9.63;2.08;;;;;;;;;;4983429;28;20030;-80
2024/03/27 01:47:12;;;;;;;9.23;1.73;;;;;;;;;;4994864;28;20791;-79
2024/03/27 01:49:39;;;;;;;;;;;;;;;;;;4972005;28;20747;-79
2024/03/27 01:52:06;;;;;;;11.85;1.92;;;;;;;;;;4990348;28;20406;-78
2024/03/27 01:54:33;;;;;;;;;;;;;;;;;;4984541;28;20034;-78
2024/03/27 01:57:00;;;;;;;10.57;1.80;;;;;;;;;;4986250;28;20028;-79
2024/03/27 01:59:26;;;;;;;11.35;1.90;;;;;;;;;;4990887;28;20026;-78
2024/03/27 02:01:53;;;;;;;8.85;1.80;;;;;;;;;;4985909;28;20033;-79
2024/03/27 02:04:21;;;;;;;7.07;1.70;;;;;;;;;;4986285;28;20105;-78
2024/03/27 02:06:51;;;;;;;9.23;1.70;;;;;;;;;;4982688;28;20083;-76
2024/03/27 02:09:20;;;;;;;9.50;2.05;;;;;;;;;;4988360;28;20589;-78
2024/03/27 02:11:49;;;;;;;11.00;2.20;;;;;;;;;;4984873;28;20032;-79
2024/03/27 02:14:16;;;;;;;9.68;2.00;;;;;;;;;;4990315;28;20219;-79
2024/03/27 02:16:43;;;;;;;8.55;1.55;;;;;;;;;;4981868;28;20029;-78
2024/03/27 02:19:11;;;;;;;7.82;1.58;;;;;;;;;;4987654;28;20468;-78
2024/03/27 02:21:40;;;;;;;11.20;1.73;;;;;;;;;;4986164;28;20033;-78
2024/03/27 02:24:25;;;;;;;8.32;1.42;;;;;;;;;;4988796;28;20057;-78
2024/03/27 02:26:53;;;;;;;6.72;1.52;;;;;;;;;;4981492;28;20065;-78
2024/03/27 02:29:21;;;;;;;9.95;1.40;;;;;;;;;;4984797;28;20064;-78
2024/03/27 02:31:51;;;;;;;8.55;1.58;;;;;;;;;;4981497;28;20556;-80
2024/03/27 02:34:19;;;;;;;8.27;1.60;;;;;;;;;;4989098;28;20041;-77
2024/03/27 02:36:46;;;;;;;9.35;1.70;;;;;;;;;;4981688;28;20595;-79
2024/03/27 02:39:13;;;;;;;8.23;1.73;;;;;;;;;;4986543;28;20829;-79
2024/03/27 02:41:40;;;;;;;12.82;1.65;;;;;;;;;;4985262;28;20036;-78
2024/03/27 02:44:09;;;;;;;8.00;1.48;;;;;;;;;;4988004;28;20022;-78
2024/03/27 02:46:38;;;;;;;8.57;1.70;;;;;;;;;;4982355;28;20061;-77
2024/03/27 02:49:04;;;;;;;8.85;1.70;;;;;;;;;;4984635;28;20026;-76
2024/03/27 02:51:34;;;;;;;7.57;1.75;;;;;;;;;;4980672;28;20061;-78
2024/03/27 02:54:00;;;;;;;6.35;1.27;;;;;;;;;;4984278;28;20034;-78
2024/03/27 02:56:29;;;;;;;9.18;1.10;;;;;;;;;;4982932;28;20033;-77
2024/03/27 02:58:55;;;;;;;5.78;1.10;;;;;;;;;;4980334;28;20030;-76
2024/03/27 03:01:23;;;;;;;7.10;1.08;;;;;;;;;;4986873;28;20032;-76
2024/03/27 03:03:50;;;;;;;6.28;1.48;;;;;;;;;;4984582;28;20716;-77
2024/03/27 03:06:19;;;;;;;7.80;1.25;;;;;;;;;;4986042;28;20025;-77
2024/03/27 03:08:46;;;;;;;7.68;1.45;;;;;;;;;;4983344;28;20037;-77
2024/03/27 03:11:14;;;;;;;7.65;1.20;;;;;;;;;;4983918;28;20042;-77
2024/03/27 03:13:40;;;;;;;6.88;1.10;;;;;;;;;;4981010;28;20031;-77
2024/03/27 03:16:09;;;;;;;6.85;1.27;;;;;;;;;;4985950;28;20022;-77
2024/03/27 03:18:37;;;;;;;3.58;0.98;;;;;;;;;;4983877;28;20850;-77
2024/03/27 03:21:05;;;;;;;7.63;1.30;;;;;;;;;;4985014;28;20030;-77
2024/03/27 03:23:33;;;;;;;5.57;1.00;;;;;;;;;;4983414;28;20076;-77
2024/03/27 03:26:03;;;;;;;6.05;1.25;;;;;;;;;;4989765;28;20038;-78
2024/03/27 03:28:32;;;;;;;6.57;1.30;;;;;;;;;;4982583;28;20617;-77
2024/03/27 03:31:04;;;;;;;5.28;1.00;;;;;;;;;;4987735;28;20151;-77
2024/03/27 03:33:31;;;;;;;5.85;1.10;;;;;;;;;;4966184;28;20567;-77
2024/03/27 03:35:59;;;;;;;5.13;1.05;;;;;;;;;;5003961;28;20052;-77
2024/03/27 03:38:27;;;;;;;4.97;1.08;;;;;;;;;;4980655;28;20083;-77
2024/03/27 03:41:01;;;;;;;3.53;1.00;;;;;;;;;;4985855;28;20021;-79
2024/03/27 03:43:29;;;;;;;4.70;1.02;;;;;;;;;;4991191;28;20074;-78
2024/03/27 03:45:57;;;;;;;5.95;1.20;;;;;;;;;;4987197;28;20076;-78
2024/03/27 03:48:25;;;;;;;4.97;1.10;;;;;;;;;;4990040;28;20037;-79
2024/03/27 03:50:52;;;;;;;6.13;1.40;;;;;;;;;;4989204;28;20034;-78
2024/03/27 03:53:20;;;;;;;6.50;1.35;;;;;;;;;;4989272;28;20034;-76
2024/03/27 03:55:51;;;;;;;5.72;1.30;;;;;;;;;;4985573;28;20033;-78
2024/03/27 03:58:19;;;;;;;4.93;1.02;;;;;;;;;;4991168;28;20038;-76
2024/03/27 04:00:55;;;;;;;7.03;1.20;;;;;;;;;;4988248;28;20029;-78
2024/03/27 04:03:21;;;;;;;4.18;1.05;;;;;;;;;;4991163;28;20094;-76
2024/03/27 04:05:50;;;;;;;5.88;1.10;;;;;;;;;;4986820;28;20791;-76
2024/03/27 04:08:17;;;;;;;6.60;1.15;;;;;;;;;;4987256;28;20096;-76
2024/03/27 04:10:45;;;;;;;5.68;1.13;;;;;;;;;;4990441;28;20121;-76
2024/03/27 04:13:12;;;;;;;6.45;1.30;;;;;;;;;;4987875;28;20088;-76
2024/03/27 04:15:43;;;;;;;5.03;1.05;;;;;;;;;;4980951;28;20863;-78
2024/03/27 04:18:12;;;;;;;5.13;1.02;;;;;;;;;;4986937;28;20502;-76
2024/03/27 04:20:46;;;;;;;5.00;1.10;;;;;;;;;;4982823;28;20026;-76
2024/03/27 04:23:13;;;;;;;5.47;1.17;;;;;;;;;;4984585;28;20127;-77
2024/03/27 04:25:47;;;;;;;6.60;1.20;;;;;;;;;;4986995;28;20131;-76
2024/03/27 04:28:15;;;;;;;6.18;1.40;;;;;;;;;;4972390;28;20044;-76
2024/03/27 04:30:42;;;;;;;6.00;1.15;;;;;;;;;;4984905;28;20053;-76
2024/03/27 04:33:09;;;;;;;5.18;1.08;;;;;;;;;;4987693;28;20021;-77
2024/03/27 04:35:35;;;;;;;4.88;1.02;;;;;;;;;;4981133;28;20053;-76
2024/03/27 04:38:02;;;;;;;6.70;1.20;;;;;;;;;;4987609;28;20120;-76
2024/03/27 04:40:30;;;;;;;6.72;1.20;;;;;;;;;;4985347;28;20044;-77
2024/03/27 04:42:58;;;;;;;5.53;1.10;;;;;;;;;;4986190;28;20083;-77
2024/03/27 04:45:27;;;;;;;8.27;1.33;;;;;;;;;;4987001;28;20025;-77
2024/03/27 04:47:53;;;;;;;6.03;1.20;;;;;;;;;;4984142;28;20108;-76
2024/03/27 04:50:21;;;;;;;6.78;1.38;;;;;;;;;;4983547;28;20077;-76
2024/03/27 04:52:47;;;;;;;7.32;1.27;;;;;;;;;;4978120;28;20033;-76
2024/03/27 04:55:14;;;;;;;4.75;1.00;;;;;;;;;;4984522;28;20034;-76
2024/03/27 04:57:41;;;;;;;5.32;1.10;;;;;;;;;;4975502;28;20038;-76
2024/03/27 05:00:12;;;;;;;7.13;1.50;;;;;;;;;;4982897;28;20109;-77
2024/03/27 05:02:38;;;;;;;6.80;1.13;;;;;;;;;;4980077;28;20064;-76
2024/03/27 05:05:06;;;;;;;5.18;1.20;;;;;;;;;;4982576;28;20026;-77
2024/03/27 05:07:35;;;;;;;7.07;1.33;;;;;;;;;;4979679;28;20853;-79
2024/03/27 05:10:01;;;;;;;5.57;1.40;;;;;;;;;;5000585;28;20026;-77
2024/03/27 05:12:27;;;;;;;;;;;;;;;;;;4997524;28;20507;-77
2024/03/27 05:14:55;;;;;;;6.03;1.42;;;;;;;;;;4981924;28;19985;-78
2024/03/27 05:17:21;;;;;;;6.32;1.50;;;;;;;;;;4983433;28;20056;-77
2024/03/27 05:19:49;;;;;;;5.28;1.58;;;;;;;;;;4977006;28;20085;-76
2024/03/27 05:22:26;;;;;;;9.32;2.30;;;;;;;;;;4981509;28;20041;-76
2024/03/27 05:24:52;;;;;;;8.98;2.33;;;;;;;;;;4978562;28;20087;-76
2024/03/27 05:27:20;;;;;;;8.18;1.88;;;;;;;;;;4982048;28;20671;-77
2024/03/27 05:29:46;;;;;;;6.38;1.67;;;;;;;;;;4983219;28;20103;-77
2024/03/27 05:32:15;;;;;;;7.78;1.60;;;;;;;;;;4980861;28;20030;-78
2024/03/27 05:34:42;;;;;;;7.00;1.30;;;;;;;;;;4977843;28;20032;-77
2024/03/27 05:37:10;;;;;;;7.38;1.30;;;;;;;;;;4984987;28;20030;-77
2024/03/27 05:39:37;;;;;;;5.80;1.60;;;;;;;;;;4979617;28;20034;-78
2024/03/27 05:42:06;;;;;;;5.32;1.40;;;;;;;;;;4984459;28;20060;-77
2024/03/27 05:44:32;;;;;;;5.22;1.30;;;;;;;;;;4984410;28;20041;-78
2024/03/27 05:46:59;;;;;;;5.68;1.40;;;;;;;;;;4980483;28;20025;-78
2024/03/27 05:49:29;;;;;;;5.82;1.40;;;;;;;;;;4977935;28;20708;-77
2024/03/27 05:51:57;;;;;;;7.93;2.05;;;;;;;;;;4983278;28;20052;-77
2024/03/27 05:54:26;;;;;;;8.35;1.80;;;;;;;;;;4983992;28;20065;-79
2024/03/27 05:56:53;;;;;;;6.78;1.60;;;;;;;;;;4980499;28;20585;-77
2024/03/27 05:59:19;;;;;;;5.10;1.42;;;;;;;;;;4985804;28;20033;-77
2024/03/27 06:01:48;;;;;;;6.20;1.45;;;;;;;;;;4975611;28;20654;-76
2024/03/27 06:04:15;;;;;;;5.82;1.35;;;;;;;;;;4983328;28;20040;-77
2024/03/27 06:06:42;;;;;;;7.13;1.40;;;;;;;;;;4959714;28;20114;-78
2024/03/27 06:09:09;;;;;;;7.57;1.52;;;;;;;;;;4985301;28;20116;-77
2024/03/27 06:11:37;;;;;;;6.20;1.60;;;;;;;;;;4976321;28;20030;-77
2024/03/27 06:14:05;;;;;;;7.15;1.60;;;;;;;;;;4981949;28;20214;-77
2024/03/27 06:16:31;;;;;;;5.63;1.30;;;;;;;;;;4977397;28;20111;-79
2024/03/27 06:18:58;;;;;;;5.65;1.63;;;;;;;;;;4984178;28;20029;-77
2024/03/27 06:21:27;;;;;;;7.60;1.98;;;;;;;;;;4984104;28;20856;-77
2024/03/27 06:24:17;;;;;;;8.55;1.90;;;;;;;;;;4981980;28;20030;-77
2024/03/27 06:26:45;;;;;;;7.15;2.42;;;;;;;;;;4978165;28;20025;-78
2024/03/27 06:29:13;;;;;;;9.32;2.70;;;;;;;;;;4982076;28;20037;-79
2024/03/27 06:31:41;;;;;;;8.73;3.72;;;;;;;;;;4979896;28;20037;-78
2024/03/27 06:34:09;;;;;;;10.35;5.18;;;;;;;;;;4984051;28;20073;-76
2024/03/27 06:36:37;;;;;;;10.85;5.57;;;;;;;;;;4978001;28;20096;-76
2024/03/27 06:39:12;;;;;;;8.60;3.00;;;;;;;;;;4981595;28;20176;-77
2024/03/27 06:41:41;;;;;;;7.45;2.47;;;;;;;;;;4981204;28;20201;-77
2024/03/27 06:44:15;;;;;;;11.23;3.67;;;;;;;;;;4983386;28;20099;-76
2024/03/27 06:46:43;;;;;;;8.90;3.38;;;;;;;;;;4973809;28;20109;-76
2024/03/27 06:49:18;;;;;;;7.88;2.70;;;;;;;;;;4981598;28;20095;-77
2024/03/27 06:51:51;;;;;;;8.23;2.80;;;;;;;;;;4976358;28;20048;-76
2024/03/27 06:54:18;;;;;;;8.93;3.25;;;;;;;;;;4981165;28;20037;-76
2024/03/27 06:56:46;;;;;;;10.05;3.10;;;;;;;;;;4972283;28;20541;-76
2024/03/27 06:59:13;;;;;;;7.35;2.35;;;;;;;;;;4979752;28;20031;-76
2024/03/27 07:01:41;;;;;;;9.48;2.60;;;;;;;;;;4977198;28;20033;-76
2024/03/27 07:04:09;;;;;;;9.52;2.70;;;;;;;;;;4981944;28;20041;-77
2024/03/27 07:06:36;;;;;;;8.95;2.70;;;;;;;;;;4975370;28;20101;-77
2024/03/27 07:09:03;;;;;;;9.85;3.20;;;;;;;;;;4983798;28;20033;-77
2024/03/27 07:11:31;;;;;;;9.60;3.20;;;;;;;;;;4976306;28;20042;-78
2024/03/27 07:13:59;;;;;;;10.75;3.20;;;;;;;;;;4981529;28;20037;-77
2024/03/27 07:16:26;;;;;;;9.52;2.83;;;;;;;;;;4983663;28;20657;-77
2024/03/27 07:18:55;;;;;;;9.05;2.90;;;;;;;;;;4982790;28;20068;-78
2024/03/27 07:21:22;;;;;;;9.68;3.22;;;;;;;;;;4987154;28;20025;-77
2024/03/27 07:23:50;;;;;;;7.65;1.85;;;;;;;;;;4981489;28;20042;-78
2024/03/27 07:26:17;;;;;;;8.30;2.30;;;;;;;;;;4986251;28;20036;-78
2024/03/27 07:28:44;;;;;;;8.85;2.17;;;;;;;;;;4980076;28;20037;-77
2024/03/27 07:31:10;;;;;;;7.40;1.70;;;;;;;;;;4986470;28;20033;-77
2024/03/27 07:33:38;;;;;;;6.43;1.50;;;;;;;;;;4980620;28;20042;-76
2024/03/27 07:36:05;;;;;;;7.05;1.73;;;;;;;;;;4984298;28;20130;-76
2024/03/27 07:38:33;;;;;;;6.47;1.50;;;;;;;;;;4982407;28;20029;-76
2024/03/27 07:41:01;;;;;;;6.72;1.70;;;;;;;;;;4986236;28;20133;-76
2024/03/27 07:43:28;;;;;;;8.45;1.52;;;;;;;;;;4987869;28;20036;-76
2024/03/27 07:45:56;;;;;;;8.05;1.80;;;;;;;;;;4986310;28;20192;-77
2024/03/27 07:48:23;;;;;;;8.20;1.50;;;;;;;;;;4983504;28;20049;-77
2024/03/27 07:50:51;;;;;;;6.18;1.10;;;;;;;;;;4970056;28;20045;-76
2024/03/27 07:53:19;;;;;;;6.50;1.20;;;;;;;;;;4985231;28;20029;-77
2024/03/27 07:55:53;;;;;;;7.97;1.50;;;;;;;;;;4977902;28;20026;-77
2024/03/27 07:58:19;;;;;;;5.80;1.08;;;;;;;;;;4982017;28;20036;-77
2024/03/27 08:00:47;;;;;;;4.68;1.00;;;;;;;;;;4986976;28;20061;-77
2024/03/27 08:03:14;;;;;;;4.18;0.80;;;;;;;;;;4987366;28;20626;-77
2024/03/27 08:05:42;;;;;;;5.57;1.17;;;;;;;;;;4986182;28;20408;-77
2024/03/27 08:08:09;;;;;;;5.47;1.02;;;;;;;;;;4988842;28;20026;-77
2024/03/27 08:10:36;;;;;;;5.78;1.00;;;;;;;;;;4983448;28;20049;-77
2024/03/27 08:13:05;;;;;;;7.07;1.10;;;;;;;;;;4968458;28;20032;-79
2024/03/27 08:15:33;;;;;;;4.78;1.00;;;;;;;;;;4983464;28;20040;-77
2024/03/27 08:18:01;;;;;;;4.78;0.90;;;;;;;;;;4986274;28;20064;-76
2024/03/27 08:20:27;;;;;;;4.15;1.10;;;;;;;;;;4985809;28;20046;-76
2024/03/27 08:22:53;;;;;;;5.05;1.10;;;;;;;;;;4983178;28;20061;-77
2024/03/27 08:25:20;;;;;;;5.60;1.20;;;;;;;;;;4988277;28;20579;-76
2024/03/27 08:27:47;;;;;;;6.00;0.90;;;;;;;;;;4980665;28;20725;-76
2024/03/27 08:30:16;;;;;;;5.95;1.15;;;;;;;;;;4987947;28;20611;-76
2024/03/27 08:32:43;;;;;;;5.57;1.35;;;;;;;;;;4982215;28;20049;-76
2024/03/27 08:35:10;;;;;;;5.30;1.05;;;;;;;;;;4985411;28;20038;-76
2024/03/27 08:37:38;;;;;;;5.72;1.10;;;;;;;;;;4982577;28;20026;-76
2024/03/27 08:40:09;;;;;;;5.20;0.98;;;;;;;;;;4991006;28;20846;-76
2024/03/27 08:42:38;;;;;;;5.55;0.90;;;;;;;;;;4985398;28;20033;-76
2024/03/27 08:45:05;;;;;;;4.00;0.68;;;;;;;;;;4990425;28;20391;-76
2024/03/27 08:47:34;;;;;;;6.18;1.00;;;;;;;;;;4984401;28;20045;-76
2024/03/27 08:50:01;;;;;;;4.18;1.00;;;;;;;;;;4985576;28;20034;-76
2024/03/27 08:52:29;;;;;;;4.00;0.80;;;;;;;;;;4988400;28;20034;-77
2024/03/27 08:54:56;;;;;;;4.47;0.90;;;;;;;;;;4984954;28;20025;-76
2024/03/27 08:57:25;;;;;;;3.97;0.90;;;;;;;;;;4987907;28;20129;-77
2024/03/27 08:59:53;;;;;;;6.28;1.15;;;;;;;;;;4983252;28;20037;-77
2024/03/27 09:02:19;;;;;;;6.22;1.20;;;;;;;;;;4989562;28;20034;-77
2024/03/27 09:04:51;;;;;;;8.00;1.10;;;;;;;;;;4977112;28;20040;-78
2024/03/27 09:07:20;;;;;;;4.07;0.90;;;;;;;;;;4985097;28;20057;-76
2024/03/27 09:09:47;;;;;;;5.45;1.17;;;;;;;;;;4980619;28;20029;-76
2024/03/27 09:12:14;;;;;;;6.97;1.13;;;;;;;;;;4986512;28;20108;-75
2024/03/27 09:14:42;;;;;;;7.45;1.10;;;;;;;;;;4981358;28;20408;-77
2024/03/27 09:17:09;;;;;;;4.03;0.98;;;;;;;;;;4986791;28;20050;-77
2024/03/27 09:19:40;;;;;;;4.55;0.90;;;;;;;;;;4981796;28;20059;-77
2024/03/27 09:22:07;;;;;;;3.67;0.90;;;;;;;;;;4988148;28;20036;-78
2024/03/27 09:24:35;;;;;;;2.92;0.70;;;;;;;;;;4980816;28;20034;-77
2024/03/27 09:27:03;;;;;;;3.78;0.90;;;;;;;;;;4984508;28;20124;-77
2024/03/27 09:29:29;;;;;;;5.28;1.00;;;;;;;;;;4986368;28;20621;-78
2024/03/27 09:31:56;;;;;;;;;;;;;;;;;;4985370;28;20522;-77
2024/03/27 09:34:23;;;;;;;5.70;1.40;;;;;;;;;;4985641;28;20402;-78
2024/03/27 09:36:51;;;;;;;5.10;1.13;;;;;;;;;;4983293;28;20562;-77
2024/03/27 09:39:21;;;;;;;6.28;1.60;;;;;;;;;;4984543;28;20220;-77
2024/03/27 09:41:49;;;;;;;7.25;2.30;;;;;;;;;;4982915;28;20042;-77
2024/03/27 09:44:16;;;;;;;4.40;1.30;;;;;;;;;;4989009;28;20037;-77
2024/03/27 09:46:45;;;;;;;4.50;1.45;;;;;;;;;;4982884;28;20034;-79
2024/03/27 09:49:13;;;;;;;8.02;1.70;;;;;;;;;;4986913;28;20057;-79
2024/03/27 09:51:41;;;;;;;6.72;1.60;;;;;;;;;;4982286;28;20493;-80
2024/03/27 09:54:08;;;;;;;4.47;1.17;;;;;;;;;;4968080;28;20030;-77
2024/03/27 09:56:39;;;;;;;6.13;1.20;;;;;;;;;;4963658;28;20057;-76
2024/03/27 09:59:06;;;;;;;3.53;1.23;;;;;;;;;;4980159;28;20040;-77
2024/03/27 10:01:33;;;;;;;4.60;1.17;;;;;;;;;;4978498;28;20034;-77
2024/03/27 10:03:59;;;;;;;;;;;;;;;;;;4984201;28;20128;-76
2024/03/27 10:06:27;;;;;;;9.27;3.97;;;;;;;;;;4989226;28;19959;-77
2024/03/27 10:08:55;;;;;;;7.07;2.45;;;;;;;;;;4982261;28;20769;-77
2024/03/27 10:11:22;;;;;;;4.55;1.23;;;;;;;;;;4985778;28;20124;-77
2024/03/27 10:13:51;;;;;;;4.85;1.38;;;;;;;;;;4981019;28;20559;-77
2024/03/27 10:16:18;;;;;;;5.68;1.50;;;;;;;;;;4985335;28;20033;-77
2024/03/27 10:18:46;;;;;;;5.82;1.13;;;;;;;;;;4965305;28;20049;-77
2024/03/27 10:21:14;;;;;;;3.03;0.85;;;;;;;;;;4986593;28;20112;-77
2024/03/27 10:23:42;;;;;;;5.50;1.23;;;;;;;;;;4983041;28;20030;-77
2024/03/27 10:26:11;;;;;;;3.90;0.90;;;;;;;;;;4984791;28;20026;-77
2024/03/27 10:28:39;;;;;;;5.13;0.93;;;;;;;;;;4983586;28;20027;-77
2024/03/27 10:31:06;;;;;;;5.50;1.10;;;;;;;;;;4988560;28;20049;-77
2024/03/27 10:33:35;;;;;;;6.40;1.23;;;;;;;;;;4978898;28;20686;-77
2024/03/27 10:36:02;;;;;;;3.78;0.90;;;;;;;;;;4985354;28;20167;-77
2024/03/27 10:38:29;;;;;;;4.78;1.00;;;;;;;;;;4986117;28;20037;-78
2024/03/27 10:41:06;;;;;;;5.63;1.20;;;;;;;;;;4984263;28;20030;-77
2024/03/27 10:43:47;;;;;;;3.30;1.00;;;;;;;;;;4978296;28;20030;-76
2024/03/27 10:46:15;;;;;;;4.78;1.25;;;;;;;;;;4986541;28;20029;-76
2024/03/27 10:48:43;;;;;;;4.88;0.70;;;;;;;;;;4981623;28;20044;-77
2024/03/27 10:51:11;;;;;;;5.50;0.90;;;;;;;;;;4990092;28;20087;-77
2024/03/27 10:53:40;;;;;;;3.75;0.68;;;;;;;;;;4982637;28;20614;-76
2024/03/27 10:56:08;;;;;;;4.20;0.70;;;;;;;;;;4989417;28;20565;-76
2024/03/27 10:58:38;;;;;;;5.63;1.17;;;;;;;;;;4980008;28;20132;-76
2024/03/27 11:01:05;;;;;;;4.20;0.80;;;;;;;;;;4989881;28;20572;-77
2024/03/27 11:03:33;;;;;;;4.05;0.75;;;;;;;;;;4981840;28;20037;-76
2024/03/27 11:06:00;;;;;;;6.40;1.10;;;;;;;;;;4988755;28;20064;-76
2024/03/27 11:08:29;;;;;;;4.15;0.90;;;;;;;;;;4991622;28;20048;-77
2024/03/27 11:11:04;;;;;;;4.72;0.95;;;;;;;;;;4987876;28;20036;-79
2024/03/27 11:13:31;;;;;;;4.68;0.80;;;;;;;;;;4986064;28;20077;-78
2024/03/27 11:15:59;;;;;;;2.65;0.68;;;;;;;;;;4992422;28;20084;-77
2024/03/27 11:18:29;;;;;;;3.92;0.70;;;;;;;;;;4989094;28;20124;-77
2024/03/27 11:20:58;;;;;;;4.22;1.10;;;;;;;;;;4989508;28;20691;-78
2024/03/27 11:23:31;;;;;;;5.72;0.95;;;;;;;;;;4990991;28;20061;-77
2024/03/27 11:25:58;;;;;;;3.28;0.50;;;;;;;;;;4973034;28;20026;-77
2024/03/27 11:28:26;;;;;;;3.20;0.82;;;;;;;;;;4987658;28;20135;-77
2024/03/27 11:30:55;;;;;;;3.45;0.70;;;;;;;;;;4986948;28;20054;-76
2024/03/27 11:33:24;;;;;;;3.70;0.80;;;;;;;;;;4990948;28;20096;-77
2024/03/27 11:35:50;;;;;;;4.63;0.70;;;;;;;;;;4989279;28;20129;-76
2024/03/27 11:38:20;;;;;;;4.30;1.00;;;;;;;;;;4991555;28;20029;-76
2024/03/27 11:40:53;;;;;;;4.25;1.00;;;;;;;;;;4986238;28;20187;-77
2024/03/27 11:43:21;;;;;;;6.07;1.42;;;;;;;;;;4989121;28;20819;-76
2024/03/27 11:45:52;;;;;;;4.45;1.27;;;;;;;;;;4985461;28;20045;-77
2024/03/27 11:48:20;;;;;;;3.47;0.75;;;;;;;;;;4989825;28;20042;-76
2024/03/27 11:50:46;;;;;;;5.30;1.00;;;;;;;;;;4987063;28;20034;-76
2024/03/27 11:53:14;;;;;;;5.18;1.08;;;;;;;;;;4989434;28;20029;-76
2024/03/27 11:55:43;;;;;;;4.88;0.70;;;;;;;;;;4985653;28;20057;-77
2024/03/27 11:58:10;;;;;;;4.47;1.00;;;;;;;;;;4989674;28;20833;-77
2024/03/27 12:00:42;;;;;;;4.45;0.85;;;;;;;;;;4980032;28;20026;-78
2024/03/27 12:03:11;;;;;;;4.97;0.90;;;;;;;;;;4988469;28;20044;-78
2024/03/27 12:05:39;;;;;;;4.40;0.90;;;;;;;;;;4984370;28;20026;-77
2024/03/27 12:08:08;;;;;;;7.63;1.08;;;;;;;;;;4990412;28;20040;-77
2024/03/27 12:10:35;;;;;;;5.90;1.42;;;;;;;;;;4989396;28;20566;-77
2024/03/27 12:13:06;;;;;;;5.20;1.40;;;;;;;;;;4994889;28;20030;-77
2024/03/27 12:15:37;;;;;;;6.85;1.60;;;;;;;;;;4986422;28;20187;-78
2024/03/27 12:18:05;;;;;;;6.35;1.60;;;;;;;;;;4993551;28;20657;-77
2024/03/27 12:20:33;;;;;;;8.23;1.58;;;;;;;;;;4990256;28;20040;-77
2024/03/27 12:23:01;;;;;;;6.85;1.70;;;;;;;;;;4991607;28;20030;-77
2024/03/27 12:25:32;;;;;;;10.15;1.73;;;;;;;;;;4991742;28;20029;-77
2024/03/27 12:28:06;;;;;;;10.70;2.30;;;;;;;;;;4991974;28;20026;-77
2024/03/27 12:30:39;;;;;;;9.82;1.83;;;;;;;;;;4988213;28;20029;-77
2024/03/27 12:33:07;;;;;;;8.60;2.30;;;;;;;;;;4997452;28;20038;-77
2024/03/27 12:35:35;;;;;;;10.25;1.60;;;;;;;;;;4989744;28;20047;-78
2024/03/27 12:38:02;;;;;;;6.32;1.40;;;;;;;;;;4996690;28;20115;-77
2024/03/27 12:40:29;;;;;;;9.85;2.25;;;;;;;;;;4992912;28;20029;-79
2024/03/27 12:42:55;;;;;;;7.18;1.65;;;;;;;;;;4993032;28;20029;-77
2024/03/27 12:45:24;;;;;;;6.63;1.40;;;;;;;;;;4991685;28;20038;-76
2024/03/27 12:47:52;;;;;;;9.50;1.70;;;;;;;;;;4989515;28;20040;-79
2024/03/27 12:50:20;;;;;;;5.60;1.42;;;;;;;;;;4990794;28;20033;-79
2024/03/27 12:52:47;;;;;;;7.95;1.77;;;;;;;;;;4988490;28;20092;-77
2024/03/27 12:55:13;;;;;;;6.68;1.50;;;;;;;;;;4990680;28;20098;-77
2024/03/27 12:57:42;;;;;;;9.45;1.60;;;;;;;;;;4997073;28;20105;-77
2024/03/27 13:00:10;;;;;;;8.77;2.47;;;;;;;;;;5013226;28;20039;-79
2024/03/27 13:02:36;;;;;;;6.80;1.90;;;;;;;;;;4999424;28;20034;-79
2024/03/27 13:05:04;;;;;;;8.10;1.90;;;;;;;;;;4992023;28;20105;-78
2024/03/27 13:07:32;;;;;;;7.90;1.63;;;;;;;;;;4989409;28;20032;-76
2024/03/27 13:10:00;;;;;;;9.55;1.77;;;;;;;;;;4986821;28;20041;-79
2024/03/27 13:12:27;;;;;;;7.55;1.48;;;;;;;;;;4978771;28;20025;-76
2024/03/27 13:14:56;;;;;;;7.22;1.63;;;;;;;;;;4994002;28;20100;-79
2024/03/27 13:17:23;;;;;;;9.73;1.70;;;;;;;;;;4991275;28;20029;-80
2024/03/27 13:19:51;;;;;;;7.63;1.30;;;;;;;;;;4981567;28;20112;-77
2024/03/27 13:22:17;;;;;;;8.80;1.48;;;;;;;;;;4984267;28;20034;-78
2024/03/27 13:24:45;;;;;;;8.13;1.60;;;;;;;;;;4979973;28;20030;-78
2024/03/27 13:27:11;;;;;;;8.52;1.40;;;;;;;;;;4983155;28;20052;-77
2024/03/27 13:29:39;;;;;;;8.45;1.48;;;;;;;;;;4978879;28;20326;-77
2024/03/27 13:32:07;;;;;;;7.65;1.20;;;;;;;;;;4983934;28;20054;-77
2024/03/27 13:34:34;;;;;;;9.77;1.63;;;;;;;;;;4980246;28;20026;-77
2024/03/27 13:37:02;;;;;;;6.85;1.65;;;;;;;;;;4984325;28;20160;-77
2024/03/27 13:39:31;;;;;;;8.80;1.30;;;;;;;;;;4982407;28;20030;-77
2024/03/27 13:41:59;;;;;;;7.05;1.30;;;;;;;;;;4982900;28;20132;-77
2024/03/27 13:44:29;;;;;;;7.40;1.77;;;;;;;;;;4985268;28;20033;-79
2024/03/27 13:46:56;;;;;;;6.22;1.30;;;;;;;;;;4982474;28;20041;-79
2024/03/27 13:49:24;;;;;;;4.30;1.00;;;;;;;;;;4981951;28;20235;-79
2024/03/27 13:51:50;;;;;;;6.65;0.88;;;;;;;;;;4983415;28;20939;-77
2024/03/27 13:54:17;;;;;;;5.57;1.00;;;;;;;;;;4986508;28;20022;-77
2024/03/27 13:56:43;;;;;;;3.80;0.90;;;;;;;;;;4980455;28;20065;-77
2024/03/27 13:59:12;;;;;;;6.10;1.40;;;;;;;;;;4977310;28;20034;-78
2024/03/27 14:01:41;;;;;;;7.00;1.33;;;;;;;;;;4979474;28;20038;-78
2024/03/27 14:04:08;;;;;;;6.47;1.50;;;;;;;;;;4986818;28;20029;-78
2024/03/27 14:06:36;;;;;;;6.80;1.40;;;;;;;;;;4980862;28;20033;-78
2024/03/27 14:09:06;;;;;;;6.47;1.30;;;;;;;;;;4983947;28;20034;-78
2024/03/27 14:11:33;;;;;;;6.70;1.30;;;;;;;;;;4984444;28;20025;-78
2024/03/27 14:14:02;;;;;;;8.88;1.58;;;;;;;;;;4982967;28;20030;-78
2024/03/27 14:16:28;;;;;;;8.63;1.90;;;;;;;;;;4982848;28;20034;-77
2024/03/27 14:18:56;;;;;;;6.00;1.60;;;;;;;;;;4981229;28;20119;-80
2024/03/27 14:21:22;;;;;;;9.77;1.80;;;;;;;;;;4983303;28;20087;-77
2024/03/27 14:23:48;;;;;;;7.53;1.40;;;;;;;;;;4981244;28;20037;-77
2024/03/27 14:26:16;;;;;;;9.13;1.60;;;;;;;;;;4987262;28;20040;-77
2024/03/27 14:28:43;;;;;;;7.90;1.50;;;;;;;;;;4983095;28;20036;-77
2024/03/27 14:31:10;;;;;;;7.45;1.60;;;;;;;;;;5000344;28;20050;-78
2024/03/27 14:33:38;;;;;;;9.55;1.70;;;;;;;;;;4983069;28;20035;-80
2024/03/27 14:36:05;;;;;;;7.72;1.70;;;;;;;;;;4986360;28;20029;-78
2024/03/27 14:38:32;;;;;;;8.45;1.83;;;;;;;;;;4986410;28;20148;-77
2024/03/27 14:40:58;;;;;;;9.60;2.35;;;;;;;;;;4985383;28;20026;-77
2024/03/27 14:43:27;;;;;;;10.75;1.88;;;;;;;;;;4986041;28;20033;-77
2024/03/27 14:45:56;;;;;;;12.32;2.60;;;;;;;;;;4987639;28;20030;-77
2024/03/27 14:48:22;;;;;;;11.43;2.00;;;;;;;;;;4982559;28;20064;-78